sensor_id;sensor_type;location;lat;lon;timestamp;pressure;altitude;pressure_sealevel;temperature;humidity
6216;BME280;3141;49.234;9.326;2022-10-16T00:00:42;99473.69;;;19.20;94.26
6216;BME280;3141;49.234;9.326;2022-10-16T00:01:27;99473.25;;;19.23;94.16
6216;BME280;3141;49.234;9.326;2022-10-16T00:02:09;99474.91;;;19.24;94.05
6216;BME280;3141;49.234;9.326;2022-10-16T00:02:51;99476.56;;;19.25;94.01
6216;BME280;3141;49.234;9.326;2022-10-16T00:03:34;99469.75;;;19.22;94.51
6216;BME280;3141;49.234;9.326;2022-10-16T00:04:17;99472.47;;;19.16;94.91
6216;BME280;3141;49.234;9.326;2022-10-16T00:04:59;99472.25;;;19.17;95.03
6216;BME280;3141;49.234;9.326;2022-10-16T00:05:43;99471.69;;;19.09;95.30
6216;BME280;3141;49.234;9.326;2022-10-16T00:06:27;99471.13;;;19.07;96.31
6216;BME280;3141;49.234;9.326;2022-10-16T00:07:09;99475.81;;;19.11;95.33
6216;BME280;3141;49.234;9.326;2022-10-16T00:07:52;99475.44;;;19.08;95.61
6216;BME280;3141;49.234;9.326;2022-10-16T00:08:35;99472.13;;;19.06;95.38
6216;BME280;3141;49.234;9.326;2022-10-16T00:09:20;99469.44;;;19.06;95.83
6216;BME280;3141;49.234;9.326;2022-10-16T00:10:02;99463.88;;;19.07;95.59
6216;BME280;3141;49.234;9.326;2022-10-16T00:10:45;99474.16;;;19.10;95.11
6216;BME280;3141;49.234;9.326;2022-10-16T00:11:32;99468.59;;;19.12;95.25
6216;BME280;3141;49.234;9.326;2022-10-16T00:12:20;99476.38;;;19.20;94.52
6216;BME280;3141;49.234;9.326;2022-10-16T00:13:03;99473.09;;;19.18;94.44
6216;BME280;3141;49.234;9.326;2022-10-16T00:13:47;99474.94;;;19.17;94.35
6216;BME280;3141;49.234;9.326;2022-10-16T00:14:30;99472.66;;;19.21;93.90
6216;BME280;3141;49.234;9.326;2022-10-16T00:15:12;99466.31;;;19.15;93.77
6216;BME280;3141;49.234;9.326;2022-10-16T00:15:56;99474.13;;;19.17;94.38
6216;BME280;3141;49.234;9.326;2022-10-16T00:16:39;99465.72;;;19.13;94.73
6216;BME280;3141;49.234;9.326;2022-10-16T00:17:21;99470.63;;;19.16;93.98
6216;BME280;3141;49.234;9.326;2022-10-16T00:18:04;99466.72;;;19.12;93.88
6216;BME280;3141;49.234;9.326;2022-10-16T00:18:47;99466.78;;;19.06;94.32
6216;BME280;3141;49.234;9.326;2022-10-16T00:19:29;99468.44;;;19.07;95.06
6216;BME280;3141;49.234;9.326;2022-10-16T00:20:12;99473.19;;;19.05;94.32
6216;BME280;3141;49.234;9.326;2022-10-16T00:20:55;99463.66;;;19.09;94.04
6216;BME280;3141;49.234;9.326;2022-10-16T00:21:37;99454.44;;;19.05;94.38
6216;BME280;3141;49.234;9.326;2022-10-16T00:22:19;99463.91;;;19.01;94.74
6216;BME280;3141;49.234;9.326;2022-10-16T00:23:02;99455.72;;;18.96;95.02
6216;BME280;3141;49.234;9.326;2022-10-16T00:23:45;99464.13;;;18.99;94.42
6216;BME280;3141;49.234;9.326;2022-10-16T00:24:28;99466.81;;;18.99;94.71
6216;BME280;3141;49.234;9.326;2022-10-16T00:25:10;99468.66;;;18.99;94.51
6216;BME280;3141;49.234;9.326;2022-10-16T00:26:01;99462.28;;;19.00;94.28
6216;BME280;3141;49.234;9.326;2022-10-16T00:26:43;99471.13;;;19.00;93.77
6216;BME280;3141;49.234;9.326;2022-10-16T00:27:25;99469.28;;;19.01;94.24
6216;BME280;3141;49.234;9.326;2022-10-16T00:28:08;99476.25;;;19.02;93.70
6216;BME280;3141;49.234;9.326;2022-10-16T00:28:50;99470.91;;;19.02;93.66
6216;BME280;3141;49.234;9.326;2022-10-16T00:29:33;99471.13;;;19.00;93.67
6216;BME280;3141;49.234;9.326;2022-10-16T00:30:15;99467.66;;;19.00;93.93
6216;BME280;3141;49.234;9.326;2022-10-16T00:30:58;99469.28;;;19.01;93.67
6216;BME280;3141;49.234;9.326;2022-10-16T00:31:40;99470.91;;;19.02;93.91
6216;BME280;3141;49.234;9.326;2022-10-16T00:32:22;99476.66;;;19.05;93.99
6216;BME280;3141;49.234;9.326;2022-10-16T00:33:05;99475.84;;;19.05;93.90
6216;BME280;3141;49.234;9.326;2022-10-16T00:33:47;99480.38;;;19.04;93.74
6216;BME280;3141;49.234;9.326;2022-10-16T00:34:30;99485.56;;;18.99;94.21
6216;BME280;3141;49.234;9.326;2022-10-16T00:35:12;99489.88;;;19.00;94.63
6216;BME280;3141;49.234;9.326;2022-10-16T00:35:57;99492.16;;;18.97;94.43
6216;BME280;3141;49.234;9.326;2022-10-16T00:36:40;99480.44;;;18.98;94.05
6216;BME280;3141;49.234;9.326;2022-10-16T00:37:22;99481.44;;;18.97;94.30
6216;BME280;3141;49.234;9.326;2022-10-16T00:38:05;99486.41;;;19.00;94.42
6216;BME280;3141;49.234;9.326;2022-10-16T00:38:50;99480.59;;;19.03;94.29
6216;BME280;3141;49.234;9.326;2022-10-16T00:39:35;99476.88;;;19.04;94.27
6216;BME280;3141;49.234;9.326;2022-10-16T00:40:17;99481.84;;;19.07;93.25
6216;BME280;3141;49.234;9.326;2022-10-16T00:41:00;99480.78;;;19.08;93.91
6216;BME280;3141;49.234;9.326;2022-10-16T00:41:42;99482.59;;;19.14;93.48
6216;BME280;3141;49.234;9.326;2022-10-16T00:42:24;99479.50;;;19.10;92.89
6216;BME280;3141;49.234;9.326;2022-10-16T00:43:36;99486.31;;;19.13;93.57
6216;BME280;3141;49.234;9.326;2022-10-16T00:44:41;99484.25;;;19.15;92.90
6216;BME280;3141;49.234;9.326;2022-10-16T00:45:24;99483.03;;;19.11;93.30
6216;BME280;3141;49.234;9.326;2022-10-16T00:46:17;99484.88;;;19.10;92.51
6216;BME280;3141;49.234;9.326;2022-10-16T00:47:01;99478.66;;;19.16;93.13
6216;BME280;3141;49.234;9.326;2022-10-16T00:47:45;99484.03;;;19.16;92.85
6216;BME280;3141;49.234;9.326;2022-10-16T00:48:31;99481.97;;;19.18;91.91
6216;BME280;3141;49.234;9.326;2022-10-16T00:49:19;99478.22;;;19.19;92.50
6216;BME280;3141;49.234;9.326;2022-10-16T00:50:08;99485.25;;;19.20;92.58
6216;BME280;3141;49.234;9.326;2022-10-16T00:50:52;99483.16;;;19.22;92.39
6216;BME280;3141;49.234;9.326;2022-10-16T00:51:37;99486.44;;;19.24;92.19
6216;BME280;3141;49.234;9.326;2022-10-16T00:52:19;99485.66;;;19.24;92.09
6216;BME280;3141;49.234;9.326;2022-10-16T00:53:02;99490.16;;;19.23;91.98
6216;BME280;3141;49.234;9.326;2022-10-16T00:53:45;99493.50;;;19.19;92.76
6216;BME280;3141;49.234;9.326;2022-10-16T00:54:30;99493.06;;;19.22;92.54
6216;BME280;3141;49.234;9.326;2022-10-16T00:55:13;99491.00;;;19.24;92.51
6216;BME280;3141;49.234;9.326;2022-10-16T00:55:55;99492.63;;;19.25;91.91
6216;BME280;3141;49.234;9.326;2022-10-16T00:56:38;99490.34;;;19.28;91.92
6216;BME280;3141;49.234;9.326;2022-10-16T00:57:22;99491.38;;;19.27;92.17
6216;BME280;3141;49.234;9.326;2022-10-16T00:58:04;99490.22;;;19.17;92.97
6216;BME280;3141;49.234;9.326;2022-10-16T00:58:47;99483.81;;;19.18;93.11
6216;BME280;3141;49.234;9.326;2022-10-16T00:59:34;99492.28;;;19.15;92.78
6216;BME280;3141;49.234;9.326;2022-10-16T01:00:21;99481.63;;;19.08;93.73
6216;BME280;3141;49.234;9.326;2022-10-16T01:01:04;99484.84;;;19.17;93.37
6216;BME280;3141;49.234;9.326;2022-10-16T01:01:46;99476.38;;;19.20;92.63
6216;BME280;3141;49.234;9.326;2022-10-16T01:02:28;99480.28;;;19.17;93.09
6216;BME280;3141;49.234;9.326;2022-10-16T01:03:34;99469.63;;;19.11;92.65
6216;BME280;3141;49.234;9.326;2022-10-16T01:04:17;99477.44;;;19.19;93.08
6216;BME280;3141;49.234;9.326;2022-10-16T01:04:59;99469.75;;;19.22;92.43
6216;BME280;3141;49.234;9.326;2022-10-16T01:05:50;99469.56;;;19.24;92.65
6216;BME280;3141;49.234;9.326;2022-10-16T01:06:38;99468.13;;;19.21;92.46
6216;BME280;3141;49.234;9.326;2022-10-16T01:07:41;99467.50;;;19.19;92.76
6216;BME280;3141;49.234;9.326;2022-10-16T01:08:35;99472.66;;;19.21;92.76
6216;BME280;3141;49.234;9.326;2022-10-16T01:09:23;99475.09;;;19.29;92.33
6216;BME280;3141;49.234;9.326;2022-10-16T01:10:17;99484.81;;;19.23;92.85
6216;BME280;3141;49.234;9.326;2022-10-16T01:12:18;99481.47;;;19.34;91.52
6216;BME280;3141;49.234;9.326;2022-10-16T01:13:11;99487.03;;;19.33;92.31
6216;BME280;3141;49.234;9.326;2022-10-16T01:13:58;99490.09;;;19.36;91.77
6216;BME280;3141;49.234;9.326;2022-10-16T01:14:54;99490.09;;;19.36;91.28
6216;BME280;3141;49.234;9.326;2022-10-16T01:15:51;99488.50;;;19.29;91.76
6216;BME280;3141;49.234;9.326;2022-10-16T01:16:42;99493.44;;;19.32;91.68
6216;BME280;3141;49.234;9.326;2022-10-16T01:17:33;99496.75;;;19.34;91.44
6216;BME280;3141;49.234;9.326;2022-10-16T01:18:28;99494.06;;;19.34;92.02
6216;BME280;3141;49.234;9.326;2022-10-16T01:20:53;99487.78;;;19.46;90.71
6216;BME280;3141;49.234;9.326;2022-10-16T01:21:40;99497.47;;;19.47;89.99
6216;BME280;3141;49.234;9.326;2022-10-16T01:22:33;99492.72;;;19.49;90.45
6216;BME280;3141;49.234;9.326;2022-10-16T01:23:27;99485.47;;;19.50;89.94
6216;BME280;3141;49.234;9.326;2022-10-16T01:24:32;99485.91;;;19.47;90.28
6216;BME280;3141;49.234;9.326;2022-10-16T01:25:25;99483.91;;;19.42;91.33
6216;BME280;3141;49.234;9.326;2022-10-16T01:27:30;99483.06;;;19.42;90.45
6216;BME280;3141;49.234;9.326;2022-10-16T01:28:15;99476.84;;;19.48;90.06
6216;BME280;3141;49.234;9.326;2022-10-16T01:29:09;99476.63;;;19.49;89.15
6216;BME280;3141;49.234;9.326;2022-10-16T01:29:58;99478.03;;;19.52;89.96
6216;BME280;3141;49.234;9.326;2022-10-16T01:30:44;99475.97;;;19.54;89.75
6216;BME280;3141;49.234;9.326;2022-10-16T01:31:29;99466.06;;;19.54;89.57
6216;BME280;3141;49.234;9.326;2022-10-16T01:33:21;99473.44;;;19.59;88.89
6216;BME280;3141;49.234;9.326;2022-10-16T01:34:15;99473.81;;;19.63;88.92
6216;BME280;3141;49.234;9.326;2022-10-16T01:35:03;99470.75;;;19.59;88.46
6216;BME280;3141;49.234;9.326;2022-10-16T01:35:57;99473.28;;;19.54;89.18
6216;BME280;3141;49.234;9.326;2022-10-16T01:36:51;99474.50;;;19.58;89.18
6216;BME280;3141;49.234;9.326;2022-10-16T01:37:38;99471.81;;;19.58;88.54
6216;BME280;3141;49.234;9.326;2022-10-16T01:39:09;99480.03;;;19.63;87.60
6216;BME280;3141;49.234;9.326;2022-10-16T01:39:55;99481.06;;;19.62;88.28
6216;BME280;3141;49.234;9.326;2022-10-16T01:40:45;99478.38;;;19.62;88.82
6216;BME280;3141;49.234;9.326;2022-10-16T01:41:37;99483.56;;;19.57;88.76
6216;BME280;3141;49.234;9.326;2022-10-16T01:42:24;99485.81;;;19.60;88.32
6216;BME280;3141;49.234;9.326;2022-10-16T01:43:12;99492.00;;;19.61;88.31
6216;BME280;3141;49.234;9.326;2022-10-16T01:44:05;99481.72;;;19.58;88.31
6216;BME280;3141;49.234;9.326;2022-10-16T01:44:51;99484.78;;;19.61;88.96
6216;BME280;3141;49.234;9.326;2022-10-16T01:45:36;99493.03;;;19.60;88.86
6216;BME280;3141;49.234;9.326;2022-10-16T01:46:20;99495.72;;;19.60;88.61
6216;BME280;3141;49.234;9.326;2022-10-16T01:47:05;99490.34;;;19.60;87.96
6216;BME280;3141;49.234;9.326;2022-10-16T01:47:49;99494.91;;;19.59;88.43
6216;BME280;3141;49.234;9.326;2022-10-16T01:48:33;99492.81;;;19.61;88.96
6216;BME280;3141;49.234;9.326;2022-10-16T01:49:17;99485.81;;;19.60;88.18
6216;BME280;3141;49.234;9.326;2022-10-16T01:50:02;99486.25;;;19.57;88.12
6216;BME280;3141;49.234;9.326;2022-10-16T01:50:58;99487.91;;;19.58;87.72
6216;BME280;3141;49.234;9.326;2022-10-16T01:51:43;99496.78;;;19.59;88.27
6216;BME280;3141;49.234;9.326;2022-10-16T01:52:29;99492.66;;;19.56;88.23
6216;BME280;3141;49.234;9.326;2022-10-16T01:53:13;99490.34;;;19.60;88.53
6216;BME280;3141;49.234;9.326;2022-10-16T01:53:58;99492.81;;;19.61;87.93
6216;BME280;3141;49.234;9.326;2022-10-16T01:54:45;99495.28;;;19.63;88.34
6216;BME280;3141;49.234;9.326;2022-10-16T01:55:33;99498.19;;;19.61;88.23
6216;BME280;3141;49.234;9.326;2022-10-16T01:56:17;99500.41;;;19.64;88.60
6216;BME280;3141;49.234;9.326;2022-10-16T01:57:01;99497.56;;;19.59;87.70
6216;BME280;3141;49.234;9.326;2022-10-16T01:57:46;99495.50;;;19.61;88.97
6216;BME280;3141;49.234;9.326;2022-10-16T01:58:34;99502.31;;;19.64;88.10
6216;BME280;3141;49.234;9.326;2022-10-16T01:59:20;99498.19;;;19.61;87.66
6216;BME280;3141;49.234;9.326;2022-10-16T02:00:07;99501.09;;;19.60;87.16
6216;BME280;3141;49.234;9.326;2022-10-16T02:00:51;99500.19;;;19.66;86.85
6216;BME280;3141;49.234;9.326;2022-10-16T02:01:36;99497.97;;;19.63;87.13
6216;BME280;3141;49.234;9.326;2022-10-16T02:02:21;99498.97;;;19.68;86.91
6216;BME280;3141;49.234;9.326;2022-10-16T02:03:05;99496.88;;;19.70;87.01
6216;BME280;3141;49.234;9.326;2022-10-16T02:03:53;99492.13;;;19.72;86.99
6216;BME280;3141;49.234;9.326;2022-10-16T02:04:38;99494.81;;;19.72;87.48
6216;BME280;3141;49.234;9.326;2022-10-16T02:06:07;99496.44;;;19.73;87.39
6216;BME280;3141;49.234;9.326;2022-10-16T02:06:49;99493.75;;;19.73;87.76
6216;BME280;3141;49.234;9.326;2022-10-16T02:07:32;99491.28;;;19.72;86.95
6216;BME280;3141;49.234;9.326;2022-10-16T02:08:14;99495.22;;;19.69;86.29
6216;BME280;3141;49.234;9.326;2022-10-16T02:08:57;99495.84;;;19.71;86.67
6216;BME280;3141;49.234;9.326;2022-10-16T02:09:39;99482.00;;;19.74;86.60
6216;BME280;3141;49.234;9.326;2022-10-16T02:10:24;99496.81;;;19.77;87.36
6216;BME280;3141;49.234;9.326;2022-10-16T02:11:07;99493.31;;;19.76;87.74
6216;BME280;3141;49.234;9.326;2022-10-16T02:11:52;99497.66;;;19.77;87.49
6216;BME280;3141;49.234;9.326;2022-10-16T02:12:39;99500.94;;;19.79;86.61
6216;BME280;3141;49.234;9.326;2022-10-16T02:13:29;99500.94;;;19.79;86.49
6216;BME280;3141;49.234;9.326;2022-10-16T02:14:13;99490.22;;;19.79;86.51
6216;BME280;3141;49.234;9.326;2022-10-16T02:14:55;99496.00;;;19.76;86.25
6216;BME280;3141;49.234;9.326;2022-10-16T02:15:38;99497.50;;;19.72;86.05
6216;BME280;3141;49.234;9.326;2022-10-16T02:16:20;99490.63;;;19.76;86.57
6216;BME280;3141;49.234;9.326;2022-10-16T02:17:14;99496.81;;;19.77;87.61
6216;BME280;3141;49.234;9.326;2022-10-16T02:17:56;99489.59;;;19.77;87.53
6216;BME280;3141;49.234;9.326;2022-10-16T02:18:39;99497.31;;;19.67;87.62
6216;BME280;3141;49.234;9.326;2022-10-16T02:19:21;99501.16;;;19.53;88.36
6216;BME280;3141;49.234;9.326;2022-10-16T02:20:04;99498.50;;;19.46;88.98
6216;BME280;3141;49.234;9.326;2022-10-16T02:21:06;99499.97;;;19.42;89.92
6216;BME280;3141;49.234;9.326;2022-10-16T02:21:58;99495.06;;;19.33;90.64
6216;BME280;3141;49.234;9.326;2022-10-16T02:22:47;99490.50;;;19.40;90.12
6216;BME280;3141;49.234;9.326;2022-10-16T02:23:53;99500.38;;;19.46;89.82
6216;BME280;3141;49.234;9.326;2022-10-16T02:24:54;99493.16;;;19.46;89.75
6216;BME280;3141;49.234;9.326;2022-10-16T02:25:41;99495.78;;;19.53;89.25
6216;BME280;3141;49.234;9.326;2022-10-16T02:26:30;99492.06;;;19.54;89.19
6216;BME280;3141;49.234;9.326;2022-10-16T02:27:33;99492.06;;;19.54;89.06
6216;BME280;3141;49.234;9.326;2022-10-16T02:28:19;99496.59;;;19.53;89.17
6216;BME280;3141;49.234;9.326;2022-10-16T02:29:07;99500.69;;;19.56;89.16
6216;BME280;3141;49.234;9.326;2022-10-16T02:30:00;99502.78;;;19.54;89.17
6216;BME280;3141;49.234;9.326;2022-10-16T02:30:47;99488.75;;;19.52;89.47
6216;BME280;3141;49.234;9.326;2022-10-16T02:31:35;99489.97;;;19.56;88.89
6216;BME280;3141;49.234;9.326;2022-10-16T02:32:23;99498.25;;;19.54;89.18
6216;BME280;3141;49.234;9.326;2022-10-16T02:33:09;99498.03;;;19.56;89.23
6216;BME280;3141;49.234;9.326;2022-10-16T02:33:53;99496.56;;;19.60;88.54
6216;BME280;3141;49.234;9.326;2022-10-16T02:34:37;99494.47;;;19.62;87.22
6216;BME280;3141;49.234;9.326;2022-10-16T02:35:23;99498.41;;;19.60;88.52
6216;BME280;3141;49.234;9.326;2022-10-16T02:36:06;99496.78;;;19.59;88.86
6216;BME280;3141;49.234;9.326;2022-10-16T02:36:50;99501.91;;;19.60;88.99
6216;BME280;3141;49.234;9.326;2022-10-16T02:37:33;99501.09;;;19.60;88.60
6216;BME280;3141;49.234;9.326;2022-10-16T02:38:16;99498.63;;;19.58;88.65
6216;BME280;3141;49.234;9.326;2022-10-16T02:38:59;99506.00;;;19.63;88.35
6216;BME280;3141;49.234;9.326;2022-10-16T02:39:43;99504.16;;;19.63;88.82
6216;BME280;3141;49.234;9.326;2022-10-16T02:40:26;99499.84;;;19.62;89.06
6216;BME280;3141;49.234;9.326;2022-10-16T02:41:09;99496.56;;;19.60;89.28
6216;BME280;3141;49.234;9.326;2022-10-16T02:41:51;99499.41;;;19.65;89.07
6216;BME280;3141;49.234;9.326;2022-10-16T02:42:38;99494.03;;;19.65;88.49
6216;BME280;3141;49.234;9.326;2022-10-16T02:43:21;99505.00;;;19.64;88.60
6216;BME280;3141;49.234;9.326;2022-10-16T02:44:04;99500.91;;;19.54;88.44
6216;BME280;3141;49.234;9.326;2022-10-16T02:44:46;99506.72;;;19.51;88.81
6216;BME280;3141;49.234;9.326;2022-10-16T02:45:28;99499.06;;;19.55;89.13
6216;BME280;3141;49.234;9.326;2022-10-16T02:46:11;99505.22;;;19.62;89.07
6216;BME280;3141;49.234;9.326;2022-10-16T02:46:53;99505.38;;;19.67;88.15
6216;BME280;3141;49.234;9.326;2022-10-16T02:47:36;99499.63;;;19.64;88.70
6216;BME280;3141;49.234;9.326;2022-10-16T02:48:18;99507.22;;;19.67;88.50
6216;BME280;3141;49.234;9.326;2022-10-16T02:49:00;99505.16;;;19.69;88.83
6216;BME280;3141;49.234;9.326;2022-10-16T02:49:43;99504.94;;;19.70;89.02
6216;BME280;3141;49.234;9.326;2022-10-16T02:50:25;99503.88;;;19.71;88.66
6216;BME280;3141;49.234;9.326;2022-10-16T02:51:07;99508.44;;;19.71;88.47
6216;BME280;3141;49.234;9.326;2022-10-16T02:51:49;99499.56;;;19.70;88.19
6216;BME280;3141;49.234;9.326;2022-10-16T02:52:32;99500.16;;;19.72;87.83
6216;BME280;3141;49.234;9.326;2022-10-16T02:53:14;99498.91;;;19.75;88.23
6216;BME280;3141;49.234;9.326;2022-10-16T02:53:56;99494.59;;;19.74;88.65
6216;BME280;3141;49.234;9.326;2022-10-16T02:54:39;99493.16;;;19.71;88.97
6216;BME280;3141;49.234;9.326;2022-10-16T02:55:21;99500.41;;;19.71;88.88
6216;BME280;3141;49.234;9.326;2022-10-16T02:56:04;99498.72;;;19.70;89.26
6216;BME280;3141;49.234;9.326;2022-10-16T02:56:46;99501.03;;;19.66;88.92
6216;BME280;3141;49.234;9.326;2022-10-16T02:57:28;99499.88;;;19.55;90.09
6216;BME280;3141;49.234;9.326;2022-10-16T02:58:11;99502.94;;;19.59;89.64
6216;BME280;3141;49.234;9.326;2022-10-16T02:58:53;99499.00;;;19.62;89.28
6216;BME280;3141;49.234;9.326;2022-10-16T02:59:35;99509.97;;;19.60;89.36
6216;BME280;3141;49.234;9.326;2022-10-16T03:00:18;99511.25;;;19.51;90.31
6216;BME280;3141;49.234;9.326;2022-10-16T03:01:00;99503.81;;;19.53;89.85
6216;BME280;3141;49.234;9.326;2022-10-16T03:01:42;99502.22;;;19.45;90.37
6216;BME280;3141;49.234;9.326;2022-10-16T03:02:25;99508.25;;;19.41;90.96
6216;BME280;3141;49.234;9.326;2022-10-16T03:03:07;99500.38;;;19.46;90.82
6216;BME280;3141;49.234;9.326;2022-10-16T03:03:50;99498.88;;;19.50;90.80
6216;BME280;3141;49.234;9.326;2022-10-16T03:04:32;99500.09;;;19.54;90.61
6216;BME280;3141;49.234;9.326;2022-10-16T03:05:15;99501.53;;;19.57;90.26
6216;BME280;3141;49.234;9.326;2022-10-16T03:05:57;99507.28;;;19.60;90.23
6216;BME280;3141;49.234;9.326;2022-10-16T03:06:39;99501.09;;;19.60;89.84
6216;BME280;3141;49.234;9.326;2022-10-16T03:07:21;99500.25;;;19.59;90.12
6216;BME280;3141;49.234;9.326;2022-10-16T03:08:04;99497.56;;;19.59;90.51
6216;BME280;3141;49.234;9.326;2022-10-16T03:08:46;99498.63;;;19.58;90.11
6216;BME280;3141;49.234;9.326;2022-10-16T03:09:28;99500.25;;;19.59;90.28
6216;BME280;3141;49.234;9.326;2022-10-16T03:10:11;99498.19;;;19.61;90.24
6216;BME280;3141;49.234;9.326;2022-10-16T03:10:53;99496.56;;;19.60;90.05
6216;BME280;3141;49.234;9.326;2022-10-16T03:11:35;99497.16;;;19.62;90.10
6216;BME280;3141;49.234;9.326;2022-10-16T03:12:18;99502.09;;;19.65;90.00
6216;BME280;3141;49.234;9.326;2022-10-16T03:13:00;99506.00;;;19.63;90.51
6216;BME280;3141;49.234;9.326;2022-10-16T03:13:42;99507.69;;;19.57;90.46
6216;BME280;3141;49.234;9.326;2022-10-16T03:14:25;99506.44;;;19.60;90.41
6216;BME280;3141;49.234;9.326;2022-10-16T03:15:07;99506.84;;;19.63;90.38
6216;BME280;3141;49.234;9.326;2022-10-16T03:15:50;99510.56;;;19.62;90.45
6216;BME280;3141;49.234;9.326;2022-10-16T03:16:32;99505.22;;;19.62;90.27
6216;BME280;3141;49.234;9.326;2022-10-16T03:17:15;99505.63;;;19.59;90.67
6216;BME280;3141;49.234;9.326;2022-10-16T03:17:59;99502.13;;;19.59;90.60
6216;BME280;3141;49.234;9.326;2022-10-16T03:18:41;99501.94;;;19.53;90.99
6216;BME280;3141;49.234;9.326;2022-10-16T03:19:23;99504.00;;;19.58;90.86
6216;BME280;3141;49.234;9.326;2022-10-16T03:20:06;99497.41;;;19.54;90.87
6216;BME280;3141;49.234;9.326;2022-10-16T03:20:49;99503.16;;;19.58;90.62
6216;BME280;3141;49.234;9.326;2022-10-16T03:21:31;99496.16;;;19.57;90.39
6216;BME280;3141;49.234;9.326;2022-10-16T03:22:13;99492.66;;;19.56;90.34
6216;BME280;3141;49.234;9.326;2022-10-16T03:22:56;99496.38;;;19.55;90.61
6216;BME280;3141;49.234;9.326;2022-10-16T03:23:38;99498.25;;;19.54;91.02
6216;BME280;3141;49.234;9.326;2022-10-16T03:24:20;99509.75;;;19.62;90.73
6216;BME280;3141;49.234;9.326;2022-10-16T03:25:03;99503.31;;;19.63;90.49
6216;BME280;3141;49.234;9.326;2022-10-16T03:25:45;99504.59;;;19.60;90.33
6216;BME280;3141;49.234;9.326;2022-10-16T03:26:28;99500.97;;;19.48;91.61
6216;BME280;3141;49.234;9.326;2022-10-16T03:27:10;99506.72;;;19.51;91.39
6216;BME280;3141;49.234;9.326;2022-10-16T03:27:52;99499.66;;;19.57;90.96
6216;BME280;3141;49.234;9.326;2022-10-16T03:28:35;99509.97;;;19.60;90.64
6216;BME280;3141;49.234;9.326;2022-10-16T03:29:17;99507.69;;;19.57;90.96
6216;BME280;3141;49.234;9.326;2022-10-16T03:29:59;99508.53;;;19.58;90.74
6216;BME280;3141;49.234;9.326;2022-10-16T03:30:43;99515.56;;;19.52;91.00
6216;BME280;3141;49.234;9.326;2022-10-16T03:31:25;99519.75;;;19.48;91.50
6216;BME280;3141;49.234;9.326;2022-10-16T03:32:08;99515.69;;;19.39;91.93
6216;BME280;3141;49.234;9.326;2022-10-16T03:32:50;99519.63;;;19.30;92.44
6216;BME280;3141;49.234;9.326;2022-10-16T03:33:35;99522.13;;;19.25;93.26
6216;BME280;3141;49.234;9.326;2022-10-16T03:34:18;99524.34;;;19.28;93.07
6216;BME280;3141;49.234;9.326;2022-10-16T03:35:00;99524.78;;;19.25;93.37
6216;BME280;3141;49.234;9.326;2022-10-16T03:35:42;99518.59;;;19.24;93.05
6216;BME280;3141;49.234;9.326;2022-10-16T03:36:25;99521.09;;;19.32;92.95
6216;BME280;3141;49.234;9.326;2022-10-16T03:37:07;99525.63;;;19.32;92.70
6216;BME280;3141;49.234;9.326;2022-10-16T03:37:50;99520.66;;;19.29;92.84
6216;BME280;3141;49.234;9.326;2022-10-16T03:38:32;99518.19;;;19.27;92.96
6216;BME280;3141;49.234;9.326;2022-10-16T03:39:15;99522.50;;;19.28;93.04
6216;BME280;3141;49.234;9.326;2022-10-16T03:39:57;99521.69;;;19.28;93.30
6216;BME280;3141;49.234;9.326;2022-10-16T03:40:39;99518.22;;;19.21;93.55
6216;BME280;3141;49.234;9.326;2022-10-16T03:41:22;99522.38;;;19.17;93.92
6216;BME280;3141;49.234;9.326;2022-10-16T03:42:04;99521.53;;;19.16;93.62
6216;BME280;3141;49.234;9.326;2022-10-16T03:42:46;99512.84;;;19.21;93.77
6216;BME280;3141;49.234;9.326;2022-10-16T03:43:29;99523.34;;;19.22;93.50
6216;BME280;3141;49.234;9.326;2022-10-16T03:44:11;99523.16;;;19.24;93.54
6216;BME280;3141;49.234;9.326;2022-10-16T03:44:56;99524.22;;;19.16;93.76
6216;BME280;3141;49.234;9.326;2022-10-16T03:45:39;99523.19;;;19.17;93.96
6216;BME280;3141;49.234;9.326;2022-10-16T03:46:21;99523.63;;;19.14;94.39
6216;BME280;3141;49.234;9.326;2022-10-16T03:47:04;99528.72;;;19.22;93.77
6216;BME280;3141;49.234;9.326;2022-10-16T03:47:46;99528.53;;;19.24;93.44
6216;BME280;3141;49.234;9.326;2022-10-16T03:48:29;99533.44;;;19.27;93.16
6216;BME280;3141;49.234;9.326;2022-10-16T03:49:12;99523.34;;;19.22;93.49
6216;BME280;3141;49.234;9.326;2022-10-16T03:49:54;99519.88;;;19.22;93.55
6216;BME280;3141;49.234;9.326;2022-10-16T03:50:36;99522.72;;;19.27;93.29
6216;BME280;3141;49.234;9.326;2022-10-16T03:51:19;99520.88;;;19.27;93.39
6216;BME280;3141;49.234;9.326;2022-10-16T03:52:01;99526.44;;;19.32;93.21
6216;BME280;3141;49.234;9.326;2022-10-16T03:52:43;99523.53;;;19.34;92.98
6216;BME280;3141;49.234;9.326;2022-10-16T03:53:26;99528.69;;;19.35;92.96
6216;BME280;3141;49.234;9.326;2022-10-16T03:54:09;99533.38;;;19.40;92.54
6216;BME280;3141;49.234;9.326;2022-10-16T03:54:52;99535.66;;;19.43;92.07
6216;BME280;3141;49.234;9.326;2022-10-16T03:55:34;99529.47;;;19.42;92.01
6216;BME280;3141;49.234;9.326;2022-10-16T03:56:16;99529.13;;;19.32;92.70
6216;BME280;3141;49.234;9.326;2022-10-16T03:56:59;99530.53;;;19.35;92.62
6216;BME280;3141;49.234;9.326;2022-10-16T03:57:41;99535.47;;;19.38;92.28
6216;BME280;3141;49.234;9.326;2022-10-16T03:58:24;99533.44;;;19.27;93.13
6216;BME280;3141;49.234;9.326;2022-10-16T03:59:06;99529.34;;;19.31;93.41
6216;BME280;3141;49.234;9.326;2022-10-16T03:59:48;99526.22;;;19.34;92.68
6216;BME280;3141;49.234;9.326;2022-10-16T04:00:30;99527.41;;;19.38;92.66
6216;BME280;3141;49.234;9.326;2022-10-16T04:01:13;99530.53;;;19.35;92.59
6216;BME280;3141;49.234;9.326;2022-10-16T04:01:55;99528.50;;;19.30;93.41
6216;BME280;3141;49.234;9.326;2022-10-16T04:02:38;99532.19;;;19.36;92.93
6216;BME280;3141;49.234;9.326;2022-10-16T04:03:20;99522.06;;;19.38;92.65
6216;BME280;3141;49.234;9.326;2022-10-16T04:04:03;99516.28;;;19.41;92.35
6216;BME280;3141;49.234;9.326;2022-10-16T04:04:45;99520.16;;;19.45;92.19
6216;BME280;3141;49.234;9.326;2022-10-16T04:05:28;99526.34;;;19.45;92.07
6216;BME280;3141;49.234;9.326;2022-10-16T04:06:10;99518.31;;;19.45;91.72
6216;BME280;3141;49.234;9.326;2022-10-16T04:06:52;99526.22;;;19.34;92.61
6216;BME280;3141;49.234;9.326;2022-10-16T04:07:35;99518.13;;;19.40;92.79
6216;BME280;3141;49.234;9.326;2022-10-16T04:08:17;99520.59;;;19.42;92.30
6216;BME280;3141;49.234;9.326;2022-10-16T04:09:00;99512.94;;;19.45;92.19
6216;BME280;3141;49.234;9.326;2022-10-16T04:09:42;99518.31;;;19.45;92.30
6216;BME280;3141;49.234;9.326;2022-10-16T04:10:24;99517.63;;;19.50;91.93
6216;BME280;3141;49.234;9.326;2022-10-16T04:11:07;99520.94;;;19.52;91.95